Time;durP1;ratioP1;P1;durP2;ratioP2;P2;SDS_P1;SDS_P2;PMS_P1;PMS_P2;Temp;Humidity;BMP_temperature;BMP_pressure;BME280_temperature;BME280_humidity;BME280_pressure;Samples;Min_cycle;Max_cycle;Signal;HPM_P1;HPM_P2
2021/04/09 00:02:24;;;;;;;14.13;8.52;;;;;;;;;;4972539;28;20027;-74
2021/04/09 00:04:50;;;;;;;16.60;10.05;;;;;;;;;;4972350;28;20019;-73
2021/04/09 00:07:16;;;;;;;15.57;9.90;;;;;;;;;;4967499;28;20587;-74
2021/04/09 00:09:42;;;;;;;16.00;9.07;;;;;;;;;;4976553;28;20030;-74
2021/04/09 00:12:08;;;;;;;18.98;9.95;;;;;;;;;;4947245;28;20066;-74
2021/04/09 00:14:35;;;;;;;18.67;10.18;;;;;;;;;;4952667;28;20075;-74
2021/04/09 00:17:01;;;;;;;21.38;10.35;;;;;;;;;;4963283;28;20035;-74
2021/04/09 00:19:27;;;;;;;18.20;11.27;;;;;;;;;;4969839;28;20042;-74
2021/04/09 00:21:54;;;;;;;16.05;9.45;;;;;;;;;;4968263;28;20034;-74
2021/04/09 00:24:20;;;;;;;22.40;11.18;;;;;;;;;;4968875;28;20023;-74
2021/04/09 00:26:46;;;;;;;21.75;11.77;;;;;;;;;;4972970;28;20514;-74
2021/04/09 00:29:12;;;;;;;18.40;10.55;;;;;;;;;;4949614;28;20023;-74
2021/04/09 00:31:39;;;;;;;17.15;10.77;;;;;;;;;;4968446;28;20509;-73
2021/04/09 00:34:05;;;;;;;19.65;11.75;;;;;;;;;;4980396;28;20085;-73
2021/04/09 00:36:33;;;;;;;18.98;11.65;;;;;;;;;;4969995;28;20034;-74
2021/04/09 00:38:59;;;;;;;23.88;12.20;;;;;;;;;;4974435;28;20109;-74
2021/04/09 00:41:25;;;;;;;19.67;11.57;;;;;;;;;;4952880;28;20458;-74
2021/04/09 00:43:51;;;;;;;19.52;11.40;;;;;;;;;;4969813;28;20504;-74
2021/04/09 00:46:17;;;;;;;20.90;12.07;;;;;;;;;;4970084;28;20106;-74
2021/04/09 00:48:43;;;;;;;19.27;11.60;;;;;;;;;;4970077;28;20030;-75
2021/04/09 00:51:09;;;;;;;21.70;12.15;;;;;;;;;;4972009;28;20034;-74
2021/04/09 00:53:36;;;;;;;22.15;12.55;;;;;;;;;;4953735;28;20476;-75
2021/04/09 00:56:03;;;;;;;19.02;11.43;;;;;;;;;;4975361;28;20400;-73
2021/04/09 00:58:29;;;;;;;22.58;11.15;;;;;;;;;;4963224;28;20453;-75
2021/04/09 01:00:56;;;;;;;17.35;11.15;;;;;;;;;;4968656;28;20038;-75
2021/04/09 01:03:22;;;;;;;20.80;11.20;;;;;;;;;;4958251;28;20411;-74
2021/04/09 01:05:48;;;;;;;23.40;11.52;;;;;;;;;;4978092;28;20029;-74
2021/04/09 01:08:14;;;;;;;17.73;10.75;;;;;;;;;;4981116;28;20060;-74
2021/04/09 01:10:40;;;;;;;19.55;10.82;;;;;;;;;;4955331;28;20054;-73
2021/04/09 01:13:06;;;;;;;19.83;10.00;;;;;;;;;;4970356;28;20038;-74
2021/04/09 01:15:32;;;;;;;18.23;10.73;;;;;;;;;;4978268;28;20034;-74
2021/04/09 01:18:03;;;;;;;16.20;10.32;;;;;;;;;;4951317;28;20046;-73
2021/04/09 01:20:35;;;;;;;16.92;10.15;;;;;;;;;;4967018;28;20497;-74
2021/04/09 01:23:04;;;;;;;19.27;10.10;;;;;;;;;;4974552;28;20081;-75
2021/04/09 01:25:49;;;;;;;17.52;9.98;;;;;;;;;;4964722;28;20138;-74
2021/04/09 01:28:17;;;;;;;23.42;10.48;;;;;;;;;;4968518;28;20109;-74
2021/04/09 01:30:54;;;;;;;16.33;9.45;;;;;;;;;;4976609;28;20031;-74
2021/04/09 01:33:22;;;;;;;18.05;8.70;;;;;;;;;;4970057;28;20034;-74
2021/04/09 01:35:50;;;;;;;13.55;8.85;;;;;;;;;;4981114;28;20077;-73
2021/04/09 01:38:17;;;;;;;12.93;7.53;;;;;;;;;;4976149;28;20429;-73
2021/04/09 01:40:45;;;;;;;11.57;7.20;;;;;;;;;;4976531;28;20480;-74
2021/04/09 01:43:13;;;;;;;12.48;7.10;;;;;;;;;;4970398;28;20503;-74
2021/04/09 01:45:39;;;;;;;11.23;6.95;;;;;;;;;;4973528;28;20028;-75
2021/04/09 01:48:08;;;;;;;14.88;7.30;;;;;;;;;;4964377;28;20019;-73
2021/04/09 01:50:35;;;;;;;16.02;7.18;;;;;;;;;;4962323;28;20034;-73
2021/04/09 01:53:02;;;;;;;13.63;7.25;;;;;;;;;;4957992;28;20085;-73
2021/04/09 01:55:30;;;;;;;14.00;7.57;;;;;;;;;;4976278;28;20034;-74
2021/04/09 01:57:57;;;;;;;11.88;7.68;;;;;;;;;;4973377;28;20055;-74
2021/04/09 02:00:24;;;;;;;16.48;7.43;;;;;;;;;;4951557;28;20436;-73
2021/04/09 02:02:50;;;;;;;11.77;6.18;;;;;;;;;;4960972;28;20063;-73
2021/04/09 02:05:17;;;;;;;14.73;8.00;;;;;;;;;;4966424;28;20035;-73
2021/04/09 02:07:44;;;;;;;13.80;7.70;;;;;;;;;;4966647;28;20058;-73
2021/04/09 02:10:10;;;;;;;12.43;7.18;;;;;;;;;;4952389;28;20085;-74
2021/04/09 02:12:36;;;;;;;13.38;7.05;;;;;;;;;;4966479;28;20036;-73
2021/04/09 02:15:04;;;;;;;12.00;6.90;;;;;;;;;;4973649;28;20404;-73
2021/04/09 02:17:30;;;;;;;12.23;7.35;;;;;;;;;;4970799;28;20423;-73
2021/04/09 02:19:56;;;;;;;10.98;7.78;;;;;;;;;;4977150;28;20031;-75
2021/04/09 02:22:22;;;;;;;11.57;7.95;;;;;;;;;;4971371;28;20031;-74
2021/04/09 02:24:48;;;;;;;14.85;7.45;;;;;;;;;;4973816;28;20034;-74
2021/04/09 02:27:15;;;;;;;16.20;7.65;;;;;;;;;;4951191;28;20409;-73
2021/04/09 02:29:43;;;;;;;13.25;7.85;;;;;;;;;;4967131;28;20102;-73
2021/04/09 02:32:09;;;;;;;16.08;7.65;;;;;;;;;;4970922;28;20027;-74
2021/04/09 02:34:35;;;;;;;12.55;7.38;;;;;;;;;;4965509;28;20469;-74
2021/04/09 02:37:01;;;;;;;11.10;8.20;;;;;;;;;;4954213;28;20027;-74
2021/04/09 02:39:29;;;;;;;15.25;7.75;;;;;;;;;;4968375;28;20043;-74
2021/04/09 02:42:06;;;;;;;20.50;8.27;;;;;;;;;;4979580;28;20267;-74
2021/04/09 02:44:32;;;;;;;12.68;8.48;;;;;;;;;;4959247;28;20037;-74
2021/04/09 02:47:06;;;;;;;15.95;8.20;;;;;;;;;;4966731;28;20031;-74
2021/04/09 02:49:39;;;;;;;12.70;7.80;;;;;;;;;;4959175;28;20274;-74
2021/04/09 02:52:38;;;;;;;18.10;9.20;;;;;;;;;;4974926;28;20400;-74
2021/04/09 02:55:14;;;;;;;16.98;8.15;;;;;;;;;;4931048;28;20544;-74
2021/04/09 02:57:40;;;;;;;14.35;8.30;;;;;;;;;;4966624;28;20034;-74
2021/04/09 03:00:08;;;;;;;13.82;8.48;;;;;;;;;;4970983;28;20110;-73
2021/04/09 03:02:34;;;;;;;11.50;8.57;;;;;;;;;;4972565;28;20508;-74
2021/04/09 03:05:00;;;;;;;13.43;7.78;;;;;;;;;;4978722;28;20023;-76
2021/04/09 03:07:26;;;;;;;13.00;8.05;;;;;;;;;;4953232;28;20050;-74
2021/04/09 03:09:52;;;;;;;21.92;9.15;;;;;;;;;;4964756;28;20031;-74
2021/04/09 03:12:19;;;;;;;14.90;8.10;;;;;;;;;;4969741;28;20027;-74
2021/04/09 03:14:48;;;;;;;19.83;9.38;;;;;;;;;;4971056;28;20106;-74
2021/04/09 03:17:18;;;;;;;13.90;9.20;;;;;;;;;;4955163;28;20403;-73
2021/04/09 03:19:44;;;;;;;14.70;8.40;;;;;;;;;;4968947;28;20531;-74
2021/04/09 03:22:11;;;;;;;12.95;8.65;;;;;;;;;;4947457;28;20042;-74
2021/04/09 03:24:37;;;;;;;16.55;8.60;;;;;;;;;;4976184;28;20031;-74
2021/04/09 03:27:04;;;;;;;13.65;8.82;;;;;;;;;;4965499;28;20122;-74
2021/04/09 03:29:30;;;;;;;18.10;8.77;;;;;;;;;;4953527;28;20042;-74
2021/04/09 03:31:56;;;;;;;16.52;9.40;;;;;;;;;;4970609;28;20026;-74
2021/04/09 03:34:21;;;;;;;15.27;8.35;;;;;;;;;;4953592;28;20031;-73
2021/04/09 03:36:47;;;;;;;15.50;9.10;;;;;;;;;;4969517;28;20038;-74
2021/04/09 03:39:13;;;;;;;12.20;8.32;;;;;;;;;;4947111;28;20036;-74
2021/04/09 03:41:39;;;;;;;16.40;8.52;;;;;;;;;;4958834;28;20030;-73
2021/04/09 03:44:05;;;;;;;17.25;8.30;;;;;;;;;;4975498;28;20474;-75
2021/04/09 03:46:31;;;;;;;21.27;9.43;;;;;;;;;;4975878;28;20034;-75
2021/04/09 03:48:57;;;;;;;21.52;10.27;;;;;;;;;;4987144;28;20015;-74
2021/04/09 03:51:23;;;;;;;14.88;8.45;;;;;;;;;;4970667;28;20031;-74
2021/04/09 03:53:49;;;;;;;15.63;8.98;;;;;;;;;;4956711;28;20023;-74
2021/04/09 03:56:15;;;;;;;20.92;9.77;;;;;;;;;;4979743;28;20066;-74
2021/04/09 03:58:42;;;;;;;16.42;9.25;;;;;;;;;;4972456;28;20104;-74
2021/04/09 04:01:08;;;;;;;15.60;9.50;;;;;;;;;;4968850;28;20035;-73
2021/04/09 04:03:34;;;;;;;18.15;9.35;;;;;;;;;;4969581;28;20472;-74
2021/04/09 04:06:00;;;;;;;17.73;9.48;;;;;;;;;;4955868;28;20019;-73
2021/04/09 04:08:26;;;;;;;20.90;10.30;;;;;;;;;;4975222;28;20029;-73
2021/04/09 04:10:52;;;;;;;15.60;8.88;;;;;;;;;;4970978;28;20440;-74
2021/04/09 04:13:18;;;;;;;20.90;9.60;;;;;;;;;;4979104;28;20034;-74
2021/04/09 04:15:44;;;;;;;18.80;8.68;;;;;;;;;;4969835;28;20554;-74
2021/04/09 04:18:10;;;;;;;16.42;9.30;;;;;;;;;;4964245;28;20051;-74
2021/04/09 04:20:36;;;;;;;20.67;9.68;;;;;;;;;;4952454;28;20039;-74
2021/04/09 04:23:02;;;;;;;19.33;9.98;;;;;;;;;;4969495;28;20449;-74
2021/04/09 04:25:28;;;;;;;21.75;10.95;;;;;;;;;;4969555;28;20018;-74
2021/04/09 04:27:54;;;;;;;21.90;10.13;;;;;;;;;;4969859;28;20058;-74
2021/04/09 04:30:20;;;;;;;18.60;10.10;;;;;;;;;;4967813;28;20491;-74
2021/04/09 04:32:46;;;;;;;20.52;10.23;;;;;;;;;;4952236;28;20037;-74
2021/04/09 04:35:12;;;;;;;17.20;10.93;;;;;;;;;;4976649;28;20113;-74
2021/04/09 04:37:38;;;;;;;20.10;10.50;;;;;;;;;;4960643;28;20058;-74
2021/04/09 04:40:04;;;;;;;23.42;10.68;;;;;;;;;;4967903;28;20492;-78
2021/04/09 04:42:30;;;;;;;18.48;10.70;;;;;;;;;;4955200;28;20459;-74
2021/04/09 04:44:56;;;;;;;18.58;10.82;;;;;;;;;;4963189;28;20018;-75
2021/04/09 04:47:22;;;;;;;19.40;11.25;;;;;;;;;;4969284;28;20022;-74
2021/04/09 04:49:48;;;;;;;19.30;11.02;;;;;;;;;;4975463;28;20468;-75
2021/04/09 04:52:14;;;;;;;21.23;11.73;;;;;;;;;;4962748;28;20050;-74
2021/04/09 04:54:40;;;;;;;22.23;13.10;;;;;;;;;;4971325;28;20037;-74
2021/04/09 04:57:06;;;;;;;21.20;11.70;;;;;;;;;;4954260;28;20050;-74
2021/04/09 04:59:32;;;;;;;20.42;11.88;;;;;;;;;;4965618;28;20031;-74
2021/04/09 05:01:58;;;;;;;20.90;11.48;;;;;;;;;;4963267;28;20030;-73
2021/04/09 05:04:24;;;;;;;24.23;12.30;;;;;;;;;;4972202;28;20030;-74
2021/04/09 05:06:50;;;;;;;25.73;13.25;;;;;;;;;;4970661;28;20040;-74
2021/04/09 05:09:16;;;;;;;25.65;14.55;;;;;;;;;;4962082;28;20039;-74
2021/04/09 05:11:42;;;;;;;23.10;12.13;;;;;;;;;;4963587;28;20478;-74
2021/04/09 05:14:09;;;;;;;21.27;12.68;;;;;;;;;;4960920;28;20483;-73
2021/04/09 05:16:35;;;;;;;23.10;13.65;;;;;;;;;;4968889;28;20114;-74
2021/04/09 05:19:01;;;;;;;26.77;14.40;;;;;;;;;;4968084;28;20494;-73
2021/04/09 05:21:27;;;;;;;23.80;12.82;;;;;;;;;;4961164;28;20092;-73
2021/04/09 05:23:53;;;;;;;26.85;12.90;;;;;;;;;;4971656;28;20031;-74
2021/04/09 05:26:19;;;;;;;25.30;13.48;;;;;;;;;;4976528;28;20535;-74
2021/04/09 05:28:45;;;;;;;24.52;13.98;;;;;;;;;;4969161;28;20125;-74
2021/04/09 05:31:11;;;;;;;29.55;13.77;;;;;;;;;;4949625;28;20385;-74
2021/04/09 05:33:37;;;;;;;26.60;13.80;;;;;;;;;;4975795;28;20034;-75
2021/04/09 05:36:03;;;;;;;21.83;13.10;;;;;;;;;;4972078;28;20042;-74
2021/04/09 05:38:29;;;;;;;20.20;11.73;;;;;;;;;;4969093;28;20156;-74
2021/04/09 05:40:55;;;;;;;25.08;13.15;;;;;;;;;;4967998;28;20441;-74
2021/04/09 05:43:20;;;;;;;20.15;12.50;;;;;;;;;;4967067;28;20073;-74
2021/04/09 05:45:46;;;;;;;21.58;11.82;;;;;;;;;;4983536;28;20066;-75
2021/04/09 05:48:13;;;;;;;23.25;12.25;;;;;;;;;;4969753;28;20042;-75
2021/04/09 05:50:39;;;;;;;21.73;12.50;;;;;;;;;;4977155;28;20026;-75
2021/04/09 05:53:05;;;;;;;20.50;12.38;;;;;;;;;;4976915;28;20030;-74
2021/04/09 05:55:31;;;;;;;21.30;12.38;;;;;;;;;;4970365;28;20488;-74
2021/04/09 05:57:57;;;;;;;23.20;12.23;;;;;;;;;;4954689;28;20039;-74
2021/04/09 06:00:23;;;;;;;25.35;12.15;;;;;;;;;;4951962;28;20035;-74
2021/04/09 06:02:49;;;;;;;21.10;11.88;;;;;;;;;;4957868;28;20039;-75
2021/04/09 06:05:15;;;;;;;25.63;11.70;;;;;;;;;;4961201;28;20034;-75
2021/04/09 06:07:41;;;;;;;22.58;12.10;;;;;;;;;;4966796;28;20058;-74
2021/04/09 06:10:08;;;;;;;24.08;12.52;;;;;;;;;;4956596;28;20066;-73
2021/04/09 06:12:34;;;;;;;22.00;11.32;;;;;;;;;;4956535;28;20082;-69
2021/04/09 06:15:00;;;;;;;23.65;12.07;;;;;;;;;;4942001;28;20105;-71
2021/04/09 06:17:26;;;;;;;24.13;12.50;;;;;;;;;;4956240;28;20082;-71
2021/04/09 06:19:52;;;;;;;20.23;11.85;;;;;;;;;;4953805;28;20027;-71
2021/04/09 06:22:18;;;;;;;22.48;12.15;;;;;;;;;;4949780;28;20169;-71
2021/04/09 06:24:44;;;;;;;21.90;11.55;;;;;;;;;;4953899;28;20391;-72
2021/04/09 06:27:10;;;;;;;19.88;11.98;;;;;;;;;;4955482;28;20067;-72
2021/04/09 06:29:36;;;;;;;21.17;12.30;;;;;;;;;;4945292;28;20027;-71
2021/04/09 06:32:03;;;;;;;18.20;11.10;;;;;;;;;;4962906;28;20031;-72
2021/04/09 06:34:29;;;;;;;17.58;11.15;;;;;;;;;;4957145;28;20051;-72
2021/04/09 06:36:55;;;;;;;22.13;11.98;;;;;;;;;;4959037;28;20026;-72
2021/04/09 06:39:21;;;;;;;22.10;12.25;;;;;;;;;;4946966;28;20536;-72
2021/04/09 06:41:47;;;;;;;21.65;12.10;;;;;;;;;;4961112;28;20114;-71
2021/04/09 06:44:13;;;;;;;21.23;11.23;;;;;;;;;;4958633;28;20157;-72
2021/04/09 06:46:40;;;;;;;22.23;11.77;;;;;;;;;;4958608;28;20027;-72
2021/04/09 06:49:06;;;;;;;19.88;10.55;;;;;;;;;;4942808;28;20118;-73
2021/04/09 06:51:34;;;;;;;22.00;11.27;;;;;;;;;;4964874;28;20162;-73
2021/04/09 06:54:01;;;;;;;18.40;10.55;;;;;;;;;;4978438;28;20390;-74
2021/04/09 06:56:29;;;;;;;24.02;10.50;;;;;;;;;;4974508;28;20492;-72
2021/04/09 06:58:56;;;;;;;19.92;10.32;;;;;;;;;;4960718;28;20071;-73
2021/04/09 07:01:23;;;;;;;21.00;10.05;;;;;;;;;;4956092;28;20034;-73
2021/04/09 07:03:50;;;;;;;33.30;11.55;;;;;;;;;;4960403;28;20067;-73
2021/04/09 07:06:16;;;;;;;22.02;10.95;;;;;;;;;;4982278;28;20027;-73
2021/04/09 07:08:42;;;;;;;19.35;9.85;;;;;;;;;;4971048;28;20056;-72
2021/04/09 07:11:09;;;;;;;18.98;10.35;;;;;;;;;;4972865;28;20015;-72
2021/04/09 07:13:50;;;;;;;16.58;9.93;;;;;;;;;;4970837;28;20054;-72
2021/04/09 07:16:17;;;;;;;20.75;9.88;;;;;;;;;;4965682;28;20114;-72
2021/04/09 07:18:47;;;;;;;28.75;11.32;;;;;;;;;;4957524;28;20039;-72
2021/04/09 07:21:24;;;;;;;21.55;9.65;;;;;;;;;;4961239;28;20056;-72
2021/04/09 07:23:51;;;;;;;16.45;8.80;;;;;;;;;;4959604;28;20370;-73
2021/04/09 07:26:35;;;;;;;14.55;9.15;;;;;;;;;;4964298;28;20022;-73
2021/04/09 07:29:01;;;;;;;19.33;9.38;;;;;;;;;;4940554;28;20489;-72
2021/04/09 07:31:28;;;;;;;14.30;9.18;;;;;;;;;;4960152;28;20037;-73
2021/04/09 07:33:54;;;;;;;18.13;9.02;;;;;;;;;;4963341;28;20083;-72
2021/04/09 07:36:20;;;;;;;18.20;8.70;;;;;;;;;;4957149;28;20038;-73
2021/04/09 07:38:51;;;;;;;18.73;9.27;;;;;;;;;;4942360;28;20039;-73
2021/04/09 07:41:17;;;;;;;32.15;9.77;;;;;;;;;;4977641;28;20035;-72
2021/04/09 07:43:44;;;;;;;15.23;8.43;;;;;;;;;;4967721;28;20019;-73
2021/04/09 07:46:23;;;;;;;13.43;8.35;;;;;;;;;;4969741;28;20285;-72
2021/04/09 07:49:01;;;;;;;26.17;9.20;;;;;;;;;;4980667;28;20113;-73
2021/04/09 07:51:27;;;;;;;22.48;8.95;;;;;;;;;;4952072;28;20542;-74
2021/04/09 07:53:53;;;;;;;16.55;8.25;;;;;;;;;;4974827;28;20053;-72
2021/04/09 07:56:19;;;;;;;16.05;8.02;;;;;;;;;;4978315;28;20479;-72
2021/04/09 07:58:46;;;;;;;16.77;8.00;;;;;;;;;;4983211;28;20030;-73
2021/04/09 08:01:19;;;;;;;15.20;7.25;;;;;;;;;;4974589;28;20031;-73
2021/04/09 08:03:45;;;;;;;19.08;7.75;;;;;;;;;;4972315;28;20436;-73
2021/04/09 08:06:12;;;;;;;14.55;7.72;;;;;;;;;;4981850;28;20105;-73
2021/04/09 08:08:56;;;;;;;15.95;7.88;;;;;;;;;;4971974;28;20027;-73
2021/04/09 08:11:29;;;;;;;11.45;6.95;;;;;;;;;;4978362;28;20425;-73
2021/04/09 08:14:04;;;;;;;24.75;6.88;;;;;;;;;;4964727;28;20508;-73
2021/04/09 08:16:35;;;;;;;16.70;7.72;;;;;;;;;;4958864;28;20113;-73
2021/04/09 08:19:16;;;;;;;15.10;5.97;;;;;;;;;;4967973;28;20117;-73
2021/04/09 08:21:44;;;;;;;12.68;5.32;;;;;;;;;;4970830;28;20030;-73
2021/04/09 08:24:11;;;;;;;15.75;5.90;;;;;;;;;;4976534;28;20596;-73
2021/04/09 08:26:38;;;;;;;13.65;5.60;;;;;;;;;;4963921;28;20118;-73
2021/04/09 08:29:04;;;;;;;8.32;4.85;;;;;;;;;;4976539;28;20646;-73
2021/04/09 08:31:31;;;;;;;13.82;4.05;;;;;;;;;;4980571;28;20456;-73
2021/04/09 08:33:57;;;;;;;10.88;3.80;;;;;;;;;;4945660;28;20027;-73
2021/04/09 08:36:25;;;;;;;11.73;3.38;;;;;;;;;;4974020;28;20034;-73
2021/04/09 08:38:51;;;;;;;15.55;4.07;;;;;;;;;;4978512;28;20499;-73
2021/04/09 08:41:18;;;;;;;11.32;3.25;;;;;;;;;;4977915;28;20035;-73
2021/04/09 08:43:44;;;;;;;7.13;3.20;;;;;;;;;;4968078;28;20102;-73
2021/04/09 08:46:10;;;;;;;10.00;3.45;;;;;;;;;;4983662;28;20065;-73
2021/04/09 08:48:37;;;;;;;6.88;3.03;;;;;;;;;;4976576;28;20054;-73
2021/04/09 08:51:04;;;;;;;8.45;3.08;;;;;;;;;;4971232;28;20023;-72
2021/04/09 08:53:31;;;;;;;9.95;3.13;;;;;;;;;;4979170;28;20031;-73
2021/04/09 08:55:57;;;;;;;7.47;2.65;;;;;;;;;;4953653;28;20061;-75
2021/04/09 08:58:23;;;;;;;9.32;3.13;;;;;;;;;;4980076;28;20135;-80
2021/04/09 09:00:50;;;;;;;13.43;3.47;;;;;;;;;;4961975;28;20048;-74
2021/04/09 09:03:22;;;;;;;8.23;2.95;;;;;;;;;;4979537;28;20544;-74
2021/04/09 09:05:55;;;;;;;9.07;3.47;;;;;;;;;;4965398;28;20114;-74
2021/04/09 09:08:21;;;;;;;11.48;3.28;;;;;;;;;;4954348;28;20512;-73
2021/04/09 09:10:47;;;;;;;12.57;3.60;;;;;;;;;;4962771;28;20500;-73
2021/04/09 09:13:15;;;;;;;9.02;3.53;;;;;;;;;;4974120;28;20126;-73
2021/04/09 09:15:44;;;;;;;12.48;3.88;;;;;;;;;;4950186;28;20045;-75
2021/04/09 09:18:22;;;;;;;10.27;3.60;;;;;;;;;;4965184;28;20121;-76
2021/04/09 09:21:10;;;;;;;8.90;3.15;;;;;;;;;;4962193;28;20039;-75
2021/04/09 09:23:46;;;;;;;12.00;3.88;;;;;;;;;;4945216;28;20037;-75
2021/04/09 09:26:24;;;;;;;6.22;2.22;;;;;;;;;;4981589;28;20487;-78
2021/04/09 09:29:08;;;;;;;8.00;2.67;;;;;;;;;;4946326;28;20114;-82
2021/04/09 09:31:35;;;;;;;4.63;2.03;;;;;;;;;;4965570;28;20484;-76
2021/04/09 09:34:35;;;;;;;8.50;2.10;;;;;;;;;;4970382;28;20030;-78
2021/04/09 09:37:07;;;;;;;7.53;1.52;;;;;;;;;;4985296;28;20061;-75
2021/04/09 09:39:35;;;;;;;6.25;2.40;;;;;;;;;;4972783;28;20033;-76
2021/04/09 09:42:02;;;;;;;6.97;1.48;;;;;;;;;;4967642;28;20033;-75
2021/04/09 09:44:30;;;;;;;7.65;1.52;;;;;;;;;;4963646;28;20039;-77
2021/04/09 09:46:55;;;;;;;5.95;1.40;;;;;;;;;;4970924;28;20066;-74
2021/04/09 09:49:22;;;;;;;6.18;1.50;;;;;;;;;;4979968;28;20031;-79
2021/04/09 09:51:48;;;;;;;4.97;1.48;;;;;;;;;;4964348;28;20029;-80
2021/04/09 09:54:40;;;;;;;4.57;1.50;;;;;;;;;;4968897;28;20029;-78
2021/04/09 09:57:25;;;;;;;7.70;1.85;;;;;;;;;;4979109;28;20042;-76
2021/04/09 09:59:51;;;;;;;8.57;1.70;;;;;;;;;;4955971;28;20559;-76
2021/04/09 10:02:18;;;;;;;7.30;1.75;;;;;;;;;;4968221;28;20044;-78
2021/04/09 10:04:44;;;;;;;8.00;1.70;;;;;;;;;;4982291;28;20018;-74
2021/04/09 10:07:10;;;;;;;6.28;1.67;;;;;;;;;;4969999;28;20519;-75
2021/04/09 10:09:36;;;;;;;7.63;2.00;;;;;;;;;;4971898;28;20085;-75
2021/04/09 10:12:02;;;;;;;6.80;1.52;;;;;;;;;;4976763;28;20027;-78
2021/04/09 10:14:28;;;;;;;8.30;2.05;;;;;;;;;;4971644;28;20022;-74
2021/04/09 10:16:56;;;;;;;7.05;1.40;;;;;;;;;;4973060;28;20436;-78
2021/04/09 10:19:22;;;;;;;3.33;1.10;;;;;;;;;;4952439;28;20035;-79
2021/04/09 10:21:48;;;;;;;7.68;1.60;;;;;;;;;;4963000;28;20027;-78
2021/04/09 10:24:18;;;;;;;5.97;1.73;;;;;;;;;;4962921;28;20540;-80
2021/04/09 10:26:44;;;;;;;;;;;;;;;;;;4939853;28;20039;-79
2021/04/09 10:29:28;;;;;;;5.85;1.05;;;;;;;;;;4960405;28;19937;-82
2021/04/09 10:31:56;;;;;;;7.30;1.80;;;;;;;;;;4958993;28;20074;-79
2021/04/09 10:34:23;;;;;;;8.73;1.92;;;;;;;;;;4940463;28;20031;-78
2021/04/09 10:36:49;;;;;;;5.43;1.70;;;;;;;;;;4960936;28;20031;-78
2021/04/09 10:39:17;;;;;;;9.50;2.17;;;;;;;;;;4958307;28;20532;-78
2021/04/09 10:41:45;;;;;;;7.28;1.80;;;;;;;;;;4957516;28;20041;-78
2021/04/09 10:44:16;;;;;;;6.40;2.05;;;;;;;;;;4958770;28;20086;-79
2021/04/09 10:46:43;;;;;;;13.23;2.25;;;;;;;;;;4937586;28;20035;-78
2021/04/09 10:49:10;;;;;;;8.20;1.98;;;;;;;;;;4955111;28;20034;-79
2021/04/09 10:51:41;;;;;;;15.98;2.53;;;;;;;;;;4938275;28;20525;-79
2021/04/09 10:54:08;;;;;;;4.65;1.80;;;;;;;;;;4963595;28;20394;-79
2021/04/09 10:56:34;;;;;;;9.55;1.70;;;;;;;;;;4957947;28;20038;-81
2021/04/09 10:59:00;;;;;;;8.18;2.20;;;;;;;;;;4958757;28;20031;-80
2021/04/09 11:01:26;;;;;;;6.60;2.00;;;;;;;;;;4955402;28;20070;-71
2021/04/09 11:03:53;;;;;;;9.00;1.35;;;;;;;;;;4962612;28;20041;-79
2021/04/09 11:06:21;;;;;;;4.43;1.67;;;;;;;;;;4954780;28;20081;-79
2021/04/09 11:08:55;;;;;;;5.18;1.70;;;;;;;;;;4948220;28;20123;-80
2021/04/09 11:11:21;;;;;;;5.70;1.95;;;;;;;;;;4958753;28;20037;-79
2021/04/09 11:13:47;;;;;;;9.52;2.33;;;;;;;;;;4964717;28;20035;-80
2021/04/09 11:16:13;;;;;;;5.80;1.73;;;;;;;;;;4949674;28;20349;-80
2021/04/09 11:18:59;;;;;;;7.88;1.75;;;;;;;;;;4954483;28;20034;-80
2021/04/09 11:21:46;;;;;;;12.07;1.95;;;;;;;;;;4944550;28;20110;-79
2021/04/09 11:24:13;;;;;;;6.18;1.77;;;;;;;;;;4959640;28;20078;-80
2021/04/09 11:26:39;;;;;;;6.15;1.70;;;;;;;;;;4959315;28;20377;-80
2021/04/09 11:29:05;;;;;;;6.78;1.70;;;;;;;;;;4941049;28;20019;-80
2021/04/09 11:31:32;;;;;;;5.22;2.08;;;;;;;;;;4956094;28;20033;-79
2021/04/09 11:34:02;;;;;;;4.43;1.73;;;;;;;;;;4955326;28;20032;-80
2021/04/09 11:36:28;;;;;;;9.25;2.17;;;;;;;;;;4959084;28;20031;-79
2021/04/09 11:39:11;;;;;;;8.95;1.83;;;;;;;;;;4956360;28;20042;-79
2021/04/09 11:41:38;;;;;;;7.97;1.33;;;;;;;;;;4949485;28;20027;-79
2021/04/09 11:44:23;;;;;;;4.50;2.03;;;;;;;;;;4960078;28;20027;-79
2021/04/09 11:46:49;;;;;;;7.07;1.75;;;;;;;;;;4938270;28;20019;-79
2021/04/09 11:49:15;;;;;;;3.85;1.52;;;;;;;;;;4959597;28;20106;-81
2021/04/09 11:51:41;;;;;;;9.52;2.30;;;;;;;;;;4966333;28;20015;-79
2021/04/09 11:54:20;;;;;;;9.73;1.40;;;;;;;;;;4981031;28;20545;-79
2021/04/09 11:56:47;;;;;;;8.85;1.80;;;;;;;;;;4967561;28;20081;-80
2021/04/09 11:59:14;;;;;;;4.78;1.60;;;;;;;;;;4977501;28;20507;-79
2021/04/09 12:01:41;;;;;;;7.57;1.50;;;;;;;;;;4948568;28;20018;-80
2021/04/09 12:04:07;;;;;;;4.18;1.13;;;;;;;;;;4956273;28;20030;-80
2021/04/09 12:06:37;;;;;;;11.52;1.83;;;;;;;;;;4966321;28;20051;-80
2021/04/09 12:09:04;;;;;;;6.18;1.65;;;;;;;;;;4968245;28;20035;-80
2021/04/09 12:11:30;;;;;;;7.13;1.90;;;;;;;;;;4969644;28;20037;-80
2021/04/09 12:13:56;;;;;;;6.18;1.88;;;;;;;;;;4944573;28;20039;-79
2021/04/09 12:16:22;;;;;;;6.38;1.45;;;;;;;;;;4974176;28;20388;-79
2021/04/09 12:18:54;;;;;;;8.18;1.90;;;;;;;;;;5084774;28;20350;-81
2021/04/09 12:21:20;;;;;;;5.07;1.67;;;;;;;;;;5067052;28;20050;-80
2021/04/09 12:23:46;;;;;;;8.23;2.05;;;;;;;;;;5048493;28;20425;-80
2021/04/09 12:26:12;;;;;;;8.35;1.90;;;;;;;;;;5070330;28;20029;-80
2021/04/09 12:28:38;;;;;;;8.32;2.30;;;;;;;;;;5051695;28;20467;-76
2021/04/09 12:31:04;;;;;;;8.70;2.97;;;;;;;;;;5063254;28;20040;-77
2021/04/09 12:33:30;;;;;;;8.52;2.38;;;;;;;;;;5065459;28;20036;-76
2021/04/09 12:35:56;;;;;;;5.30;1.38;;;;;;;;;;5060549;28;20029;-77
2021/04/09 12:38:22;;;;;;;7.45;1.90;;;;;;;;;;5039841;28;20569;-77
2021/04/09 12:40:48;;;;;;;11.52;2.10;;;;;;;;;;5060904;28;20079;-77
2021/04/09 12:43:14;;;;;;;8.45;2.17;;;;;;;;;;5061083;28;20020;-77
2021/04/09 12:45:40;;;;;;;7.05;1.42;;;;;;;;;;5060305;28;20032;-77
2021/04/09 12:48:06;;;;;;;4.57;1.58;;;;;;;;;;5063312;28;20079;-77
2021/04/09 12:50:32;;;;;;;6.28;1.80;;;;;;;;;;5058542;28;20028;-77
2021/04/09 12:52:58;;;;;;;5.65;1.60;;;;;;;;;;5061887;28;20553;-77
2021/04/09 12:55:27;;;;;;;6.72;1.35;;;;;;;;;;5067627;28;20220;-78
2021/04/09 12:57:53;;;;;;;10.43;1.55;;;;;;;;;;5061331;28;20082;-78
2021/04/09 13:00:19;;;;;;;9.40;1.30;;;;;;;;;;5065587;28;20480;-77
2021/04/09 13:02:45;;;;;;;7.95;1.45;;;;;;;;;;5056500;28;20041;-74
2021/04/09 13:05:11;;;;;;;5.22;1.35;;;;;;;;;;5057086;28;20112;-76
2021/04/09 13:07:37;;;;;;;4.05;1.40;;;;;;;;;;5053065;28;20035;-74
2021/04/09 13:10:03;;;;;;;4.05;1.40;;;;;;;;;;5052460;28;20029;-74
2021/04/09 13:12:29;;;;;;;8.05;2.20;;;;;;;;;;5059668;28;20151;-75
2021/04/09 13:14:55;;;;;;;9.13;2.13;;;;;;;;;;5059184;28;20108;-75
2021/04/09 13:17:21;;;;;;;7.03;1.77;;;;;;;;;;5037655;28;20043;-75
2021/04/09 13:19:47;;;;;;;7.32;2.00;;;;;;;;;;5048706;28;20036;-74
2021/04/09 13:22:13;;;;;;;7.18;2.03;;;;;;;;;;5038763;28;20051;-74
2021/04/09 13:24:39;;;;;;;8.45;1.70;;;;;;;;;;5057697;28;20056;-73
2021/04/09 13:27:07;;;;;;;8.35;1.85;;;;;;;;;;5059795;28;20037;-75
2021/04/09 13:29:33;;;;;;;7.43;1.77;;;;;;;;;;5047114;28;20494;-72
2021/04/09 13:31:59;;;;;;;7.70;2.30;;;;;;;;;;5045158;28;20110;-72
2021/04/09 13:34:26;;;;;;;5.57;2.10;;;;;;;;;;5042331;28;20382;-72
2021/04/09 13:36:52;;;;;;;8.48;2.03;;;;;;;;;;5033935;28;20048;-72
2021/04/09 13:39:18;;;;;;;7.82;1.90;;;;;;;;;;5024425;28;20025;-73
2021/04/09 13:41:44;;;;;;;7.32;2.45;;;;;;;;;;5044373;28;20041;-72
2021/04/09 13:44:10;;;;;;;7.78;2.08;;;;;;;;;;5042142;28;20065;-73
2021/04/09 13:46:36;;;;;;;5.82;1.83;;;;;;;;;;5068009;28;20126;-73
2021/04/09 13:49:02;;;;;;;6.03;2.75;;;;;;;;;;5036413;28;20021;-71
2021/04/09 13:51:28;;;;;;;8.90;2.33;;;;;;;;;;5057158;28;20031;-72
2021/04/09 13:53:54;;;;;;;5.93;2.13;;;;;;;;;;5051663;28;20112;-72
2021/04/09 13:56:20;;;;;;;8.13;1.85;;;;;;;;;;5034132;28;20017;-73
2021/04/09 13:58:49;;;;;;;8.32;2.10;;;;;;;;;;5049496;28;20044;-71
2021/04/09 14:01:14;;;;;;;8.15;2.45;;;;;;;;;;5050533;28;20058;-72
2021/04/09 14:03:40;;;;;;;7.45;2.15;;;;;;;;;;5053220;28;20024;-72
2021/04/09 14:06:06;;;;;;;7.28;2.47;;;;;;;;;;5044712;28;20068;-72
2021/04/09 14:08:32;;;;;;;3.42;1.88;;;;;;;;;;5046971;28;20289;-73
2021/04/09 14:10:58;;;;;;;10.38;2.38;;;;;;;;;;5035805;28;20087;-75
2021/04/09 14:13:24;;;;;;;5.72;2.10;;;;;;;;;;5039708;28;20024;-71
2021/04/09 14:15:50;;;;;;;5.57;1.63;;;;;;;;;;5057697;28;20104;-73
2021/04/09 14:18:16;;;;;;;5.93;2.08;;;;;;;;;;5052966;28;20112;-73
2021/04/09 14:20:43;;;;;;;10.30;2.50;;;;;;;;;;5038102;28;20021;-73
2021/04/09 14:23:09;;;;;;;6.57;1.80;;;;;;;;;;5035179;28;20076;-73
2021/04/09 14:25:34;;;;;;;10.13;2.33;;;;;;;;;;5017336;28;20035;-74
2021/04/09 14:28:00;;;;;;;4.07;1.48;;;;;;;;;;5033000;28;20479;-72
2021/04/09 14:30:26;;;;;;;6.05;2.00;;;;;;;;;;5019718;28;20025;-74
2021/04/09 14:32:53;;;;;;;14.48;3.20;;;;;;;;;;5034542;28;20437;-73
2021/04/09 14:35:20;;;;;;;7.05;1.95;;;;;;;;;;5022373;28;20344;-73